sensor_id;sensor_type;location;lat;lon;timestamp;pressure;altitude;pressure_sealevel;temperature;humidity
46846;BME280;33947;46.804;134.252;2022-12-29T00:00:25;101533.09;;;-13.27;66.36
46846;BME280;33947;46.804;134.252;2022-12-29T00:03:29;101536.59;;;-13.05;66.34
46846;BME280;33947;46.804;134.252;2022-12-29T00:06:34;101543.75;;;-12.91;66.20
46846;BME280;33947;46.804;134.252;2022-12-29T00:09:39;101542.28;;;-13.39;67.52
46846;BME280;33947;46.804;134.252;2022-12-29T00:12:43;101545.66;;;-13.09;68.63
46846;BME280;33947;46.804;134.252;2022-12-29T00:16:07;101556.28;;;-13.04;68.34
46846;BME280;33947;46.804;134.252;2022-12-29T00:19:12;101544.50;;;-12.82;68.13
46846;BME280;33947;46.804;134.252;2022-12-29T00:22:35;101545.03;;;-12.75;67.33
46846;BME280;33947;46.804;134.252;2022-12-29T00:26:03;101563.06;;;-12.74;65.77
46846;BME280;33947;46.804;134.252;2022-12-29T00:29:26;101557.28;;;-12.40;64.75
46846;BME280;33947;46.804;134.252;2022-12-29T00:32:49;101517.34;;;-12.38;64.38
46846;BME280;33947;46.804;134.252;2022-12-29T00:36:30;101561.44;;;-11.77;63.80
46846;BME280;33947;46.804;134.252;2022-12-29T00:39:36;101550.34;;;-11.11;62.09
46846;BME280;33947;46.804;134.252;2022-12-29T00:43:00;101562.25;;;-11.11;62.43
46846;BME280;33947;46.804;134.252;2022-12-29T00:46:22;101562.00;;;-10.46;60.42
46846;BME280;33947;46.804;134.252;2022-12-29T00:49:27;101570.63;;;-10.80;62.20
46846;BME280;33947;46.804;134.252;2022-12-29T00:52:36;101575.16;;;-9.70;59.52
46846;BME280;33947;46.804;134.252;2022-12-29T00:55:40;101560.28;;;-9.62;60.40
46846;BME280;33947;46.804;134.252;2022-12-29T00:58:46;101572.38;;;-9.85;57.50
46846;BME280;33947;46.804;134.252;2022-12-29T01:01:52;101581.53;;;-9.53;58.17
46846;BME280;33947;46.804;134.252;2022-12-29T01:04:57;101585.34;;;-10.07;58.58
46846;BME280;33947;46.804;134.252;2022-12-29T01:08:01;101590.22;;;-9.39;56.99
46846;BME280;33947;46.804;134.252;2022-12-29T01:11:11;101592.84;;;-10.10;57.28
46846;BME280;33947;46.804;134.252;2022-12-29T01:14:18;101581.78;;;-9.62;59.29
46846;BME280;33947;46.804;134.252;2022-12-29T01:17:23;101595.88;;;-9.56;59.11
46846;BME280;33947;46.804;134.252;2022-12-29T01:20:27;101592.28;;;-9.70;58.91
46846;BME280;33947;46.804;134.252;2022-12-29T01:23:33;101600.44;;;-9.76;56.95
46846;BME280;33947;46.804;134.252;2022-12-29T01:26:37;101574.41;;;-10.05;57.15
46846;BME280;33947;46.804;134.252;2022-12-29T01:29:42;101598.00;;;-9.86;55.13
46846;BME280;33947;46.804;134.252;2022-12-29T01:32:46;101590.19;;;-10.12;54.83
46846;BME280;33947;46.804;134.252;2022-12-29T01:35:51;101594.66;;;-9.74;55.38
46846;BME280;33947;46.804;134.252;2022-12-29T01:38:56;101600.94;;;-8.31;55.13
46846;BME280;33947;46.804;134.252;2022-12-29T01:42:00;101598.00;;;-9.13;54.20
46846;BME280;33947;46.804;134.252;2022-12-29T01:45:13;101605.13;;;-10.06;52.58
46846;BME280;33947;46.804;134.252;2022-12-29T01:48:20;101608.03;;;-9.54;54.53
46846;BME280;33947;46.804;134.252;2022-12-29T01:51:26;101614.41;;;-8.35;53.89
46846;BME280;33947;46.804;134.252;2022-12-29T01:54:43;101602.84;;;-8.67;51.65
46846;BME280;33947;46.804;134.252;2022-12-29T01:57:53;101591.75;;;-8.66;51.54
46846;BME280;33947;46.804;134.252;2022-12-29T02:01:00;101593.22;;;-9.33;50.95
46846;BME280;33947;46.804;134.252;2022-12-29T02:04:06;101589.94;;;-9.55;51.49
46846;BME280;33947;46.804;134.252;2022-12-29T02:07:22;101603.84;;;-9.28;53.04
46846;BME280;33947;46.804;134.252;2022-12-29T02:10:31;101590.84;;;-10.03;53.31
46846;BME280;33947;46.804;134.252;2022-12-29T02:13:37;101597.22;;;-9.85;53.06
46846;BME280;33947;46.804;134.252;2022-12-29T02:19:54;101608.78;;;-8.94;52.09
46846;BME280;33947;46.804;134.252;2022-12-29T02:23:30;101609.72;;;-10.14;52.97
46846;BME280;33947;46.804;134.252;2022-12-29T02:27:40;101613.97;;;-10.14;54.89
46846;BME280;33947;46.804;134.252;2022-12-29T02:41:46;101595.94;;;-9.43;52.62
46846;BME280;33947;46.804;134.252;2022-12-29T02:45:14;101595.44;;;-9.86;54.18
46846;BME280;33947;46.804;134.252;2022-12-29T02:48:55;101592.25;;;-9.09;52.05
46846;BME280;33947;46.804;134.252;2022-12-29T02:55:11;101575.66;;;-9.88;53.45
46846;BME280;33947;46.804;134.252;2022-12-29T02:58:22;101577.63;;;-9.60;53.90
46846;BME280;33947;46.804;134.252;2022-12-29T03:12:07;101566.25;;;-10.23;54.85
46846;BME280;33947;46.804;134.252;2022-12-29T03:15:31;101586.16;;;-9.72;52.39
46846;BME280;33947;46.804;134.252;2022-12-29T03:19:14;101565.09;;;-10.62;54.09
46846;BME280;33947;46.804;134.252;2022-12-29T03:22:25;101561.34;;;-10.55;55.95
46846;BME280;33947;46.804;134.252;2022-12-29T03:25:46;101574.06;;;-10.33;55.71
46846;BME280;33947;46.804;134.252;2022-12-29T03:28:55;101560.66;;;-9.69;54.78
46846;BME280;33947;46.804;134.252;2022-12-29T03:32:05;101546.16;;;-10.52;55.04
46846;BME280;33947;46.804;134.252;2022-12-29T03:35:18;101554.63;;;-9.94;55.00
46846;BME280;33947;46.804;134.252;2022-12-29T03:38:28;101557.53;;;-9.89;52.60
46846;BME280;33947;46.804;134.252;2022-12-29T03:41:38;101548.94;;;-10.01;55.76
46846;BME280;33947;46.804;134.252;2022-12-29T03:44:46;101552.06;;;-10.06;54.62
46846;BME280;33947;46.804;134.252;2022-12-29T03:47:53;101519.91;;;-10.36;55.29
46846;BME280;33947;46.804;134.252;2022-12-29T03:50:58;101547.94;;;-9.80;53.72
46846;BME280;33947;46.804;134.252;2022-12-29T03:54:03;101502.84;;;-9.75;52.59
46846;BME280;33947;46.804;134.252;2022-12-29T03:57:09;101534.59;;;-9.25;53.71
46846;BME280;33947;46.804;134.252;2022-12-29T04:00:34;101549.19;;;-8.87;53.06
46846;BME280;33947;46.804;134.252;2022-12-29T04:03:38;101551.84;;;-9.36;52.15
46846;BME280;33947;46.804;134.252;2022-12-29T04:06:43;101507.84;;;-9.52;54.34
46846;BME280;33947;46.804;134.252;2022-12-29T04:09:48;101549.63;;;-9.43;53.44
46846;BME280;33947;46.804;134.252;2022-12-29T04:12:57;101550.28;;;-9.34;54.01
46846;BME280;33947;46.804;134.252;2022-12-29T04:16:01;101532.97;;;-10.33;54.03
46846;BME280;33947;46.804;134.252;2022-12-29T04:19:08;101552.50;;;-9.88;54.84
46846;BME280;33947;46.804;134.252;2022-12-29T04:22:12;101510.44;;;-9.76;53.69
46846;BME280;33947;46.804;134.252;2022-12-29T04:25:17;101545.81;;;-10.33;55.45
46846;BME280;33947;46.804;134.252;2022-12-29T04:28:22;101553.84;;;-10.28;55.16
46846;BME280;33947;46.804;134.252;2022-12-29T04:31:44;101542.22;;;-9.88;54.72
46846;BME280;33947;46.804;134.252;2022-12-29T04:34:49;101545.34;;;-9.31;55.32
46846;BME280;33947;46.804;134.252;2022-12-29T04:37:54;101550.47;;;-9.31;54.30
46846;BME280;33947;46.804;134.252;2022-12-29T04:41:01;101548.66;;;-9.20;54.52
46846;BME280;33947;46.804;134.252;2022-12-29T04:44:07;101542.75;;;-9.31;52.82
46846;BME280;33947;46.804;134.252;2022-12-29T04:47:32;101519.56;;;-10.29;53.60
46846;BME280;33947;46.804;134.252;2022-12-29T04:51:15;101527.03;;;-10.32;55.99
46846;BME280;33947;46.804;134.252;2022-12-29T04:54:20;101536.00;;;-10.15;55.61
46846;BME280;33947;46.804;134.252;2022-12-29T04:57:33;101540.13;;;-10.17;54.70
46846;BME280;33947;46.804;134.252;2022-12-29T05:00:37;101552.72;;;-9.96;55.20
46846;BME280;33947;46.804;134.252;2022-12-29T05:03:42;101496.78;;;-10.48;54.34
46846;BME280;33947;46.804;134.252;2022-12-29T05:06:47;101551.22;;;-9.45;55.35
46846;BME280;33947;46.804;134.252;2022-12-29T05:09:53;101555.41;;;-9.34;53.02
46846;BME280;33947;46.804;134.252;2022-12-29T05:12:57;101560.44;;;-9.84;54.53
46846;BME280;33947;46.804;134.252;2022-12-29T05:16:02;101551.97;;;-10.19;53.76
46846;BME280;33947;46.804;134.252;2022-12-29T05:19:07;101547.94;;;-9.80;55.12
46846;BME280;33947;46.804;134.252;2022-12-29T05:22:12;101554.16;;;-9.76;53.90
46846;BME280;33947;46.804;134.252;2022-12-29T05:25:21;101547.25;;;-9.89;54.05
46846;BME280;33947;46.804;134.252;2022-12-29T05:28:36;101558.66;;;-10.33;55.08
46846;BME280;33947;46.804;134.252;2022-12-29T05:31:48;101569.72;;;-9.63;55.26
46846;BME280;33947;46.804;134.252;2022-12-29T05:34:52;101549.16;;;-9.75;53.42
46846;BME280;33947;46.804;134.252;2022-12-29T05:37:58;101567.81;;;-9.77;54.28
46846;BME280;33947;46.804;134.252;2022-12-29T05:41:02;101540.56;;;-10.47;55.35
46846;BME280;33947;46.804;134.252;2022-12-29T05:44:25;101574.28;;;-10.54;55.23
46846;BME280;33947;46.804;134.252;2022-12-29T05:47:48;101565.53;;;-11.02;57.60
46846;BME280;33947;46.804;134.252;2022-12-29T05:51:10;101571.09;;;-10.73;58.36
46846;BME280;33947;46.804;134.252;2022-12-29T05:54:26;101564.31;;;-10.61;57.65
46846;BME280;33947;46.804;134.252;2022-12-29T05:57:31;101570.59;;;-10.92;57.17
46846;BME280;33947;46.804;134.252;2022-12-29T06:00:45;101575.84;;;-10.90;58.43
46846;BME280;33947;46.804;134.252;2022-12-29T06:03:49;101557.78;;;-11.14;58.46
46846;BME280;33947;46.804;134.252;2022-12-29T06:06:55;101568.44;;;-10.97;57.60
46846;BME280;33947;46.804;134.252;2022-12-29T06:10:10;101573.31;;;-10.78;56.88
46846;BME280;33947;46.804;134.252;2022-12-29T06:13:22;101569.25;;;-11.43;58.00
46846;BME280;33947;46.804;134.252;2022-12-29T06:16:26;101572.97;;;-11.50;59.32
46846;BME280;33947;46.804;134.252;2022-12-29T06:19:34;101573.03;;;-10.93;58.47
46846;BME280;33947;46.804;134.252;2022-12-29T06:22:39;101551.41;;;-10.85;57.10
46846;BME280;33947;46.804;134.252;2022-12-29T06:25:44;101591.69;;;-10.84;57.08
46846;BME280;33947;46.804;134.252;2022-12-29T06:28:50;101540.47;;;-11.83;57.45
46846;BME280;33947;46.804;134.252;2022-12-29T06:31:55;101592.44;;;-11.19;57.98
46846;BME280;33947;46.804;134.252;2022-12-29T06:35:06;101603.69;;;-11.39;56.00
46846;BME280;33947;46.804;134.252;2022-12-29T06:38:17;101615.88;;;-11.37;58.22
46846;BME280;33947;46.804;134.252;2022-12-29T06:41:21;101600.22;;;-11.62;57.03
46846;BME280;33947;46.804;134.252;2022-12-29T06:44:58;101608.25;;;-11.25;57.56
46846;BME280;33947;46.804;134.252;2022-12-29T06:48:05;101618.06;;;-11.74;57.76
46846;BME280;33947;46.804;134.252;2022-12-29T06:51:09;101609.41;;;-11.97;57.63
46846;BME280;33947;46.804;134.252;2022-12-29T06:54:14;101622.16;;;-12.09;57.93
46846;BME280;33947;46.804;134.252;2022-12-29T06:57:19;101614.50;;;-12.29;58.83
46846;BME280;33947;46.804;134.252;2022-12-29T07:00:24;101638.47;;;-12.29;58.82
46846;BME280;33947;46.804;134.252;2022-12-29T07:03:29;101640.25;;;-12.28;59.77
46846;BME280;33947;46.804;134.252;2022-12-29T07:06:34;101636.28;;;-12.34;59.53
46846;BME280;33947;46.804;134.252;2022-12-29T07:09:38;101634.47;;;-12.56;59.61
46846;BME280;33947;46.804;134.252;2022-12-29T07:12:43;101639.59;;;-12.77;60.92
46846;BME280;33947;46.804;134.252;2022-12-29T07:15:48;101633.06;;;-12.42;59.42
46846;BME280;33947;46.804;134.252;2022-12-29T07:18:52;101634.31;;;-12.78;60.13
46846;BME280;33947;46.804;134.252;2022-12-29T07:21:57;101636.50;;;-12.73;60.76
46846;BME280;33947;46.804;134.252;2022-12-29T07:25:02;101645.59;;;-12.76;60.69
46846;BME280;33947;46.804;134.252;2022-12-29T07:28:07;101646.50;;;-12.76;61.14
46846;BME280;33947;46.804;134.252;2022-12-29T07:31:17;101663.84;;;-12.92;61.20
46846;BME280;33947;46.804;134.252;2022-12-29T07:34:22;101664.75;;;-12.92;62.28
46846;BME280;33947;46.804;134.252;2022-12-29T07:37:29;101630.06;;;-12.88;61.45
46846;BME280;33947;46.804;134.252;2022-12-29T07:40:34;101661.53;;;-12.89;61.11
46846;BME280;33947;46.804;134.252;2022-12-29T07:43:38;101674.00;;;-12.73;61.30
46846;BME280;33947;46.804;134.252;2022-12-29T07:47:10;101676.03;;;-12.69;61.15
46846;BME280;33947;46.804;134.252;2022-12-29T07:50:14;101687.44;;;-12.76;61.36
46846;BME280;33947;46.804;134.252;2022-12-29T07:53:19;101675.00;;;-12.82;60.76
46846;BME280;33947;46.804;134.252;2022-12-29T07:56:23;101674.50;;;-12.77;61.29
46846;BME280;33947;46.804;134.252;2022-12-29T07:59:28;101669.34;;;-12.98;61.18
46846;BME280;33947;46.804;134.252;2022-12-29T08:02:34;101682.31;;;-13.16;61.63
46846;BME280;33947;46.804;134.252;2022-12-29T08:05:38;101687.19;;;-13.09;61.81
46846;BME280;33947;46.804;134.252;2022-12-29T08:08:43;101701.44;;;-12.91;60.84
46846;BME280;33947;46.804;134.252;2022-12-29T08:11:48;101687.63;;;-12.94;61.54
46846;BME280;33947;46.804;134.252;2022-12-29T08:14:53;101686.00;;;-12.93;61.16
46846;BME280;33947;46.804;134.252;2022-12-29T08:17:57;101672.69;;;-12.78;61.39
46846;BME280;33947;46.804;134.252;2022-12-29T08:21:03;101699.22;;;-12.57;60.18
46846;BME280;33947;46.804;134.252;2022-12-29T08:24:08;101702.53;;;-12.69;60.36
46846;BME280;33947;46.804;134.252;2022-12-29T08:27:13;101688.03;;;-12.99;60.78
46846;BME280;33947;46.804;134.252;2022-12-29T08:30:22;101697.25;;;-12.81;61.05
46846;BME280;33947;46.804;134.252;2022-12-29T08:33:27;101716.00;;;-12.61;60.81
46846;BME280;33947;46.804;134.252;2022-12-29T08:36:32;101700.50;;;-12.73;60.88
46846;BME280;33947;46.804;134.252;2022-12-29T08:39:36;101710.63;;;-12.64;60.85
46846;BME280;33947;46.804;134.252;2022-12-29T08:42:41;101710.50;;;-12.55;60.61
46846;BME280;33947;46.804;134.252;2022-12-29T08:45:45;101707.31;;;-12.32;60.76
46846;BME280;33947;46.804;134.252;2022-12-29T08:48:50;101709.00;;;-12.43;59.85
46846;BME280;33947;46.804;134.252;2022-12-29T08:51:55;101725.13;;;-12.33;60.30
46846;BME280;33947;46.804;134.252;2022-12-29T08:54:59;101724.47;;;-12.41;59.59
46846;BME280;33947;46.804;134.252;2022-12-29T08:58:05;101736.41;;;-12.00;58.99
46846;BME280;33947;46.804;134.252;2022-12-29T09:01:13;101741.47;;;-11.80;58.26
46846;BME280;33947;46.804;134.252;2022-12-29T09:04:19;101732.50;;;-11.74;57.92
46846;BME280;33947;46.804;134.252;2022-12-29T09:07:24;101726.81;;;-12.13;58.47
46846;BME280;33947;46.804;134.252;2022-12-29T09:10:29;101737.41;;;-11.98;57.98
46846;BME280;33947;46.804;134.252;2022-12-29T09:13:34;101743.34;;;-12.10;58.08
46846;BME280;33947;46.804;134.252;2022-12-29T09:16:39;101745.75;;;-11.90;58.12
46846;BME280;33947;46.804;134.252;2022-12-29T09:20:03;101751.09;;;-11.77;57.91
46846;BME280;33947;46.804;134.252;2022-12-29T09:23:07;101747.44;;;-12.01;58.37
46846;BME280;33947;46.804;134.252;2022-12-29T09:26:12;101747.56;;;-12.31;59.17
46846;BME280;33947;46.804;134.252;2022-12-29T09:29:16;101764.47;;;-12.23;59.18
46846;BME280;33947;46.804;134.252;2022-12-29T09:32:21;101746.53;;;-12.23;58.99
46846;BME280;33947;46.804;134.252;2022-12-29T09:35:30;101758.94;;;-12.27;58.73
46846;BME280;33947;46.804;134.252;2022-12-29T09:38:35;101774.16;;;-12.39;59.19
46846;BME280;33947;46.804;134.252;2022-12-29T09:41:49;101760.03;;;-12.55;59.39
46846;BME280;33947;46.804;134.252;2022-12-29T09:45:15;101771.28;;;-12.63;60.01
46846;BME280;33947;46.804;134.252;2022-12-29T09:48:28;101778.22;;;-12.52;60.82
46846;BME280;33947;46.804;134.252;2022-12-29T09:51:37;101758.69;;;-12.81;60.61
46846;BME280;33947;46.804;134.252;2022-12-29T09:54:57;101788.94;;;-12.66;60.95
46846;BME280;33947;46.804;134.252;2022-12-29T10:13:43;101680.53;;;-13.17;60.79
46846;BME280;33947;46.804;134.252;2022-12-29T10:23:49;101779.59;;;-12.95;60.94
46846;BME280;33947;46.804;134.252;2022-12-29T10:26:59;101773.38;;;-13.07;61.06
46846;BME280;33947;46.804;134.252;2022-12-29T10:30:04;101755.22;;;-13.11;61.29
46846;BME280;33947;46.804;134.252;2022-12-29T10:33:15;101796.78;;;-12.84;61.28
46846;BME280;33947;46.804;134.252;2022-12-29T10:36:39;101791.00;;;-12.91;60.68
46846;BME280;33947;46.804;134.252;2022-12-29T10:39:53;101733.81;;;-12.92;60.49
46846;BME280;33947;46.804;134.252;2022-12-29T10:43:00;101785.78;;;-12.83;60.14
46846;BME280;33947;46.804;134.252;2022-12-29T10:46:16;101739.75;;;-13.12;60.78
46846;BME280;33947;46.804;134.252;2022-12-29T10:49:25;101790.53;;;-12.87;60.74
46846;BME280;33947;46.804;134.252;2022-12-29T10:52:33;101789.19;;;-12.92;60.93
46846;BME280;33947;46.804;134.252;2022-12-29T10:55:42;101781.47;;;-12.73;60.28
46846;BME280;33947;46.804;134.252;2022-12-29T10:58:48;101797.75;;;-12.62;60.20
46846;BME280;33947;46.804;134.252;2022-12-29T11:02:17;101800.75;;;-12.47;60.34
46846;BME280;33947;46.804;134.252;2022-12-29T11:05:49;101806.34;;;-12.12;59.08
46846;BME280;33947;46.804;134.252;2022-12-29T11:09:07;101809.00;;;-12.31;59.13
46846;BME280;33947;46.804;134.252;2022-12-29T11:12:32;101800.56;;;-12.30;58.14
46846;BME280;33947;46.804;134.252;2022-12-29T11:15:40;101798.16;;;-12.08;58.76
46846;BME280;33947;46.804;134.252;2022-12-29T11:18:46;101812.47;;;-11.99;57.72
46846;BME280;33947;46.804;134.252;2022-12-29T11:21:50;101808.59;;;-12.36;57.19
46846;BME280;33947;46.804;134.252;2022-12-29T11:25:06;101801.84;;;-12.65;59.53
46846;BME280;33947;46.804;134.252;2022-12-29T11:28:16;101792.41;;;-12.95;59.24
46846;BME280;33947;46.804;134.252;2022-12-29T11:31:21;101813.47;;;-12.98;60.21
46846;BME280;33947;46.804;134.252;2022-12-29T11:34:35;101806.75;;;-12.87;59.79
46846;BME280;33947;46.804;134.252;2022-12-29T11:37:40;101800.00;;;-12.86;60.65
46846;BME280;33947;46.804;134.252;2022-12-29T11:40:46;101773.22;;;-12.90;60.17
46846;BME280;33947;46.804;134.252;2022-12-29T11:43:52;101795.00;;;-12.85;59.46
46846;BME280;33947;46.804;134.252;2022-12-29T11:46:58;101779.16;;;-12.70;59.68
46846;BME280;33947;46.804;134.252;2022-12-29T11:50:06;101783.19;;;-12.53;58.97
46846;BME280;33947;46.804;134.252;2022-12-29T11:53:28;101803.91;;;-12.31;57.96
46846;BME280;33947;46.804;134.252;2022-12-29T11:56:40;101799.88;;;-12.48;58.23
46846;BME280;33947;46.804;134.252;2022-12-29T11:59:53;101797.44;;;-12.46;58.57
46846;BME280;33947;46.804;134.252;2022-12-29T12:03:21;101785.28;;;-12.49;58.17
46846;BME280;33947;46.804;134.252;2022-12-29T12:06:29;101805.94;;;-12.27;57.89
46846;BME280;33947;46.804;134.252;2022-12-29T12:13:12;101798.59;;;-12.43;57.81
46846;BME280;33947;46.804;134.252;2022-12-29T12:16:22;101809.63;;;-12.73;60.08
46846;BME280;33947;46.804;134.252;2022-12-29T12:30:07;101793.66;;;-12.60;58.64
46846;BME280;33947;46.804;134.252;2022-12-29T12:33:39;101805.50;;;-12.82;59.46
46846;BME280;33947;46.804;134.252;2022-12-29T12:40:07;101792.13;;;-12.69;59.87
46846;BME280;33947;46.804;134.252;2022-12-29T12:43:41;101797.50;;;-12.66;58.84
46846;BME280;33947;46.804;134.252;2022-12-29T13:00:11;101805.59;;;-13.10;59.65
46846;BME280;33947;46.804;134.252;2022-12-29T13:10:16;101811.69;;;-13.67;59.15
46846;BME280;33947;46.804;134.252;2022-12-29T13:13:43;101808.44;;;-13.55;60.07
46846;BME280;33947;46.804;134.252;2022-12-29T13:23:42;101814.13;;;-14.70;61.90
46846;BME280;33947;46.804;134.252;2022-12-29T13:27:04;101806.75;;;-14.66;61.51
46846;BME280;33947;46.804;134.252;2022-12-29T13:30:20;101821.78;;;-14.33;62.00
46846;BME280;33947;46.804;134.252;2022-12-29T13:34:05;101828.59;;;-14.51;61.81
46846;BME280;33947;46.804;134.252;2022-12-29T13:37:16;101816.63;;;-14.61;61.90
46846;BME280;33947;46.804;134.252;2022-12-29T13:40:25;101831.88;;;-14.34;62.50
46846;BME280;33947;46.804;134.252;2022-12-29T13:43:35;101823.91;;;-14.01;61.58
46846;BME280;33947;46.804;134.252;2022-12-29T13:46:44;101825.41;;;-14.03;60.15
46846;BME280;33947;46.804;134.252;2022-12-29T13:49:51;101806.88;;;-14.19;60.58
46846;BME280;33947;46.804;134.252;2022-12-29T13:56:30;101821.59;;;-13.89;60.93
46846;BME280;33947;46.804;134.252;2022-12-29T13:59:57;101838.47;;;-14.00;60.32
46846;BME280;33947;46.804;134.252;2022-12-29T14:06:35;101810.56;;;-14.07;60.88
46846;BME280;33947;46.804;134.252;2022-12-29T14:09:50;101822.13;;;-14.11;60.30
46846;BME280;33947;46.804;134.252;2022-12-29T14:16:34;101829.56;;;-13.94;60.17
46846;BME280;33947;46.804;134.252;2022-12-29T14:19:42;101801.44;;;-14.50;61.78
46846;BME280;33947;46.804;134.252;2022-12-29T14:23:14;101819.88;;;-14.07;62.29
46846;BME280;33947;46.804;134.252;2022-12-29T14:33:01;101806.22;;;-13.80;60.71
46846;BME280;33947;46.804;134.252;2022-12-29T14:40:22;101813.13;;;-14.07;62.40
46846;BME280;33947;46.804;134.252;2022-12-29T14:43:28;101819.91;;;-13.88;62.59
46846;BME280;33947;46.804;134.252;2022-12-29T14:47:08;101823.28;;;-13.51;60.62
46846;BME280;33947;46.804;134.252;2022-12-29T14:50:16;101791.66;;;-13.81;61.05
46846;BME280;33947;46.804;134.252;2022-12-29T14:53:45;101818.91;;;-14.18;61.43
46846;BME280;33947;46.804;134.252;2022-12-29T14:56:51;101807.22;;;-14.34;62.03
46846;BME280;33947;46.804;134.252;2022-12-29T15:00:00;101808.19;;;-14.51;62.30
46846;BME280;33947;46.804;134.252;2022-12-29T15:03:48;101823.94;;;-14.46;62.52
46846;BME280;33947;46.804;134.252;2022-12-29T15:06:44;101794.56;;;-14.60;61.77
46846;BME280;33947;46.804;134.252;2022-12-29T15:13:36;101808.47;;;-14.76;62.29
46846;BME280;33947;46.804;134.252;2022-12-29T15:16:41;101813.16;;;-15.24;61.81
46846;BME280;33947;46.804;134.252;2022-12-29T15:19:46;101764.47;;;-15.98;62.38
46846;BME280;33947;46.804;134.252;2022-12-29T15:22:58;101821.84;;;-15.75;63.03
46846;BME280;33947;46.804;134.252;2022-12-29T15:26:06;101812.75;;;-16.24;63.07
46846;BME280;33947;46.804;134.252;2022-12-29T15:29:31;101814.72;;;-16.13;64.31
46846;BME280;33947;46.804;134.252;2022-12-29T15:32:43;101811.31;;;-16.13;63.11
46846;BME280;33947;46.804;134.252;2022-12-29T15:35:52;101819.81;;;-16.55;63.05
46846;BME280;33947;46.804;134.252;2022-12-29T15:38:58;101812.47;;;-16.61;64.59
46846;BME280;33947;46.804;134.252;2022-12-29T15:42:09;101821.72;;;-16.62;63.17
46846;BME280;33947;46.804;134.252;2022-12-29T15:45:20;101816.16;;;-17.00;63.90
46846;BME280;33947;46.804;134.252;2022-12-29T15:48:28;101816.25;;;-17.07;66.23
46846;BME280;33947;46.804;134.252;2022-12-29T15:51:38;101814.34;;;-16.76;65.17
46846;BME280;33947;46.804;134.252;2022-12-29T15:54:43;101819.44;;;-17.01;64.79
46846;BME280;33947;46.804;134.252;2022-12-29T15:57:48;101820.41;;;-16.58;64.70
46846;BME280;33947;46.804;134.252;2022-12-29T16:01:02;101828.41;;;-16.46;63.28
46846;BME280;33947;46.804;134.252;2022-12-29T16:04:08;101821.84;;;-16.69;62.72
46846;BME280;33947;46.804;134.252;2022-12-29T16:07:32;101829.97;;;-16.55;62.17
46846;BME280;33947;46.804;134.252;2022-12-29T16:10:44;101821.97;;;-16.67;61.92
46846;BME280;33947;46.804;134.252;2022-12-29T16:13:49;101821.34;;;-16.82;62.53
46846;BME280;33947;46.804;134.252;2022-12-29T16:16:57;101832.31;;;-16.99;62.50
46846;BME280;33947;46.804;134.252;2022-12-29T16:20:17;101822.72;;;-17.02;62.70
46846;BME280;33947;46.804;134.252;2022-12-29T16:23:26;101822.34;;;-17.14;62.92
46846;BME280;33947;46.804;134.252;2022-12-29T16:26:31;101824.84;;;-17.23;62.76
46846;BME280;33947;46.804;134.252;2022-12-29T16:29:36;101812.81;;;-17.49;62.84
46846;BME280;33947;46.804;134.252;2022-12-29T16:32:46;101830.41;;;-17.66;62.00
46846;BME280;33947;46.804;134.252;2022-12-29T16:35:51;101828.56;;;-17.76;63.91
46846;BME280;33947;46.804;134.252;2022-12-29T16:48:57;101841.09;;;-18.56;63.50
46846;BME280;33947;46.804;134.252;2022-12-29T16:52:10;101855.28;;;-18.42;63.28
46846;BME280;33947;46.804;134.252;2022-12-29T16:55:17;101843.53;;;-18.02;63.80
46846;BME280;33947;46.804;134.252;2022-12-29T16:58:26;101853.19;;;-17.91;62.77
46846;BME280;33947;46.804;134.252;2022-12-29T17:01:36;101843.22;;;-18.29;61.25
46846;BME280;33947;46.804;134.252;2022-12-29T17:04:41;101842.34;;;-18.29;62.95
46846;BME280;33947;46.804;134.252;2022-12-29T17:07:46;101859.88;;;-18.08;63.13
46846;BME280;33947;46.804;134.252;2022-12-29T17:10:56;101838.75;;;-17.99;62.37
46846;BME280;33947;46.804;134.252;2022-12-29T17:14:35;101865.75;;;-18.00;61.60
46846;BME280;33947;46.804;134.252;2022-12-29T17:17:46;101872.84;;;-18.37;62.20
46846;BME280;33947;46.804;134.252;2022-12-29T17:20:51;101869.84;;;-18.49;61.40
46846;BME280;33947;46.804;134.252;2022-12-29T17:23:56;101884.72;;;-18.28;60.74
46846;BME280;33947;46.804;134.252;2022-12-29T17:27:00;101881.81;;;-19.09;60.99
46846;BME280;33947;46.804;134.252;2022-12-29T17:33:19;101880.72;;;-18.57;61.87
46846;BME280;33947;46.804;134.252;2022-12-29T17:36:24;101888.69;;;-18.84;60.38
46846;BME280;33947;46.804;134.252;2022-12-29T17:39:29;101908.94;;;-19.08;62.29
46846;BME280;33947;46.804;134.252;2022-12-29T17:42:37;101897.19;;;-19.07;62.08
46846;BME280;33947;46.804;134.252;2022-12-29T17:45:47;101907.56;;;-19.20;61.68
46846;BME280;33947;46.804;134.252;2022-12-29T17:48:52;101908.09;;;-18.85;61.92
46846;BME280;33947;46.804;134.252;2022-12-29T17:51:57;101914.41;;;-18.88;61.22
46846;BME280;33947;46.804;134.252;2022-12-29T17:55:02;101862.00;;;-19.34;62.23
46846;BME280;33947;46.804;134.252;2022-12-29T17:58:21;101912.31;;;-19.30;62.22
46846;BME280;33947;46.804;134.252;2022-12-29T18:01:27;101907.13;;;-19.09;61.93
46846;BME280;33947;46.804;134.252;2022-12-29T18:04:38;101893.13;;;-19.28;61.14
46846;BME280;33947;46.804;134.252;2022-12-29T18:07:42;101918.72;;;-18.80;60.65
46846;BME280;33947;46.804;134.252;2022-12-29T18:10:47;101906.84;;;-19.33;60.52
46846;BME280;33947;46.804;134.252;2022-12-29T18:13:54;101918.59;;;-19.27;61.70